D/T METAR WX W/DIR W/SPE G/SPE TEMP DEWP
16/07/19 17:00 EIME 161600Z 24009KT 9999 FEW020 BKN090 21/15 Q1017 WSW (240°) 10.4mph 21°C 15°C
16/07/19 16:30 EIME 161530Z 23009KT 9999 FEW020 SCT033 BKN090 21/15 Q1017 SW (230°) 10.4mph 21°C 15°C
16/07/19 16:00 EIME 161500Z 22008KT 9999 FEW030 SCT050 BKN080 21/15 Q1017 SW (220°) 9.2mph 21°C 15°C
16/07/19 15:30 EIME 161430Z 23010KT 9999 FEW030 SCT045 BKN060 21/15 Q1017 SW (230°) 11.5mph 21°C 15°C
16/07/19 15:00 EIME 161400Z 23008KT 9999 SCT026 BKN050 BKN070 21/15 Q1017 SW (230°) 9.2mph 21°C 15°C
16/07/19 14:30 EIME 161330Z 23007KT 9999 FEW025 BKN041 20/15 Q1017 SW (230°) 8.1mph 20°C 15°C
16/07/19 14:00 EIME 161300Z 25006KT 9999 FEW025 BKN044 20/14 Q1018 WSW (250°) 6.9mph 20°C 14°C
16/07/19 13:30 EIME 161230Z 26006KT 9999 FEW026 BKN045 20/14 Q1018 W (260°) 6.9mph 20°C 14°C
16/07/19 13:00 EIME 161200Z 27004KT 9999 FEW026 BKN070 21/15 Q1018 W (270°) 4.6mph 21°C 15°C
16/07/19 12:30 EIME 161130Z 23003KT 9999 FEW026 BKN060 20/15 Q1018 SW (230°) 3.5mph 20°C 15°C
16/07/19 12:00 EIME 161100Z 26005KT 9999 FEW023 SCT050 BKN060 20/15 Q1018 W (260°) 5.8mph 20°C 15°C
16/07/19 11:30 EIME 161030Z 27006KT 9999 SCT021 BKN060 19/14 Q1018 W (270°) 6.9mph 19°C 14°C
16/07/19 11:00 EIME 161000Z 26011KT 9999 FEW020 SCT028 18/14 Q1019 W (260°) 12.7mph 18°C 14°C
16/07/19 10:30 EIME 160930Z 26011KT 9999 FEW019 BKN029 18/15 Q1019 W (260°) 12.7mph 18°C 15°C
16/07/19 10:00 EIME 160900Z 25010KT 9999 FEW016 BKN025 18/15 Q1019 WSW (250°) 11.5mph 18°C 15°C
16/07/19 09:30 EIME 160830Z 24011KT 9999 FEW019 BKN029 18/15 Q1019 WSW (240°) 12.7mph 18°C 15°C
16/07/19 09:00 EIME 160800Z 23010KT 9999 BKN030 BKN080 18/14 Q1019 SW (230°) 11.5mph 18°C 14°C
16/07/19 08:30 EIME 160730Z 22009KT 9999 FEW030 BKN080 18/14 Q1019 SW (220°) 10.4mph 18°C 14°C
16/07/19 08:00 EIME 160700Z 22007KT 9999 FEW024 BKN080 17/14 Q1018 SW (220°) 8.1mph 17°C 14°C
16/07/19 07:00 EIME 160600Z 21009KT 9999 FEW024 BKN080 16/13 Q1018 SSW (210°) 10.4mph 16°C 13°C
16/07/19 06:00 EIME 160500Z 23009KT 9999 FEW024 BKN080 16/13 Q1018 SW (230°) 10.4mph 16°C 13°C
16/07/19 05:00 EIME 160400Z 23010KT CAVOK 16/13 Q1019 SW (230°) 11.5mph 16°C 13°C
16/07/19 04:00 EIME 160300Z 23008KT CAVOK 16/13 Q1019 SW (230°) 9.2mph 16°C 13°C
16/07/19 03:00 EIME 160200Z 23010KT CAVOK 16/12 Q1019 SW (230°) 11.5mph 16°C 12°C
16/07/19 02:00 EIME 160100Z 22012KT 9999 CAVOK 16/11 Q1019 SW (220°) 13.8mph 16°C 11°C
16/07/19 01:00 EIME 160000Z 22011KT 9999 FEW080 BKN180 16/11 Q1019 SW (220°) 12.7mph 16°C 11°C
16/07/19 00:00 EIME 152300Z 23010KT 9999 FEW080 SCT200 16/10 Q1019 SW (230°) 11.5mph 16°C 10°C
15/07/19 23:00 EIME 152200Z 22010KT 9999 FEW030 BKN080 17/11 Q1019 SW (220°) 11.5mph 17°C 11°C
15/07/19 22:00 EIME 152100Z 21009KT 9999 FEW030 BKN080 19/12 Q1019 SSW (210°) 10.4mph 19°C 12°C
15/07/19 21:00 EIME 152000Z 22008KT CAVOK 19/12 Q1019 SW (220°) 9.2mph 19°C 12°C
15/07/19 20:00 EIME 151900Z 21010KT 9999 FEW025 BKN250 20/12 Q1019 SSW (210°) 11.5mph 20°C 12°C
15/07/19 19:00 EIME 151800Z 22013KT 9999 FEW030 BKN250 21/11 Q1019 SW (220°) 15.0mph 21°C 11°C
15/07/19 18:00 EIME 151700Z 23010KT 9999 FEW030 BKN250 22/12 Q1019 SW (230°) 11.5mph 22°C 12°C
15/07/19 17:00 EIME 151600Z 23009KT 9999 FEW030 BKN070 BKN250 21/13 Q1019 SW (230°) 10.4mph 21°C 13°C
15/07/19 16:30 EIME 151530Z 22011KT 9999 FEW030 SCT050 BKN250 22/12 Q1019 SW (220°) 12.7mph 22°C 12°C
15/07/19 16:00 EIME 151500Z 22011KT 9999 FEW030 SCT050 BKN250 23/12 Q1019 SW (220°) 12.7mph 23°C 12°C
15/07/19 15:30 EIME 151430Z 25010KT 9999 FEW025 SCT050 BKN250 23/12 Q1020 WSW (250°) 11.5mph 23°C 12°C
15/07/19 15:00 EIME 151400Z 23010KT 9999 FEW025 SCT060 BKN250 23/12 Q1020 SW (230°) 11.5mph 23°C 12°C
15/07/19 14:30 EIME 151330Z 25009KT 9999 FEW025 SCT047 BKN250 23/12 Q1020 WSW (250°) 10.4mph 23°C 12°C
15/07/19 14:00 EIME 151300Z 23010KT 9999 FEW022 SCT050 23/12 Q1020 SW (230°) 11.5mph 23°C 12°C
15/07/19 13:30 EIME 151230Z 23009KT 9999 FEW022 SCT040 22/14 Q1020 SW (230°) 10.4mph 22°C 14°C
15/07/19 13:00 EIME 151200Z 25010KT 9999 FEW022 BKN050 22/14 Q1020 WSW (250°) 11.5mph 22°C 14°C
15/07/19 12:30 EIME 151130Z 23007KT 9999 FEW022 SCT031 22/15 Q1020 SW (230°) 8.1mph 22°C 15°C
15/07/19 12:00 EIME 151100Z 24007KT 9999 FEW022 SCT027 20/14 Q1021 WSW (240°) 8.1mph 20°C 14°C
15/07/19 11:30 EIME 151030Z 25007KT 9999 FEW022 SCT026 20/14 Q1021 WSW (250°) 8.1mph 20°C 14°C
15/07/19 11:00 EIME 151000Z 23006KT 9999 FEW022 SCT025 19/14 Q1021 SW (230°) 6.9mph 19°C 14°C
15/07/19 10:30 EIME 150930Z 28006KT 9999 FEW021 19/14 Q1021 W (280°) 6.9mph 19°C 14°C
15/07/19 10:00 EIME 150900Z 29003KT 9999 FEW020 17/13 Q1021 WNW (290°) 3.5mph 17°C 13°C